2015 RAQUEL (2015180S04163)


On this page: IBTrACS data - Map and Plots - Positions - Intensities - Original source data

Summary

Start Jun 28
End Jul 4
Basin SP
LMI 45 kt
Sources jtwc_sh
bom
In WMO? Yes
Previous storm 2015 CHAN-HOM (WP)
Previous in basin 2015 SOLO (SP)
Concurrent storms 2015 CHAN-HOM (WP)
2015 RAQUEL (SP)
2015 LINFA (WP)
2015 NANGKA (WP)
Next in basin Missing
Next storm 2015 LINFA (WP)

top of page IBTrACS Data: File Access

No storm imagery available

top of page Plots:

Map of storm track will not appear if FTP is down
Time series of cyclone Maximum Sustained Wind will not appear if FTP is down
Time series of cyclone Minimum Central Pressure will not appear if FTP is down

top of page Track Data:Position

jtwc_sh bom
Date Lat Lon Lat Lon
2015-06-28 12:00:00 -4.0 163.4
2015-06-28 18:00:00 -4.1 163.0 -4.0 163.4
2015-06-29 00:00:00 -4.2 162.3 -4.1 162.5
2015-06-29 06:00:00 -3.8 161.9 -3.8 161.9
2015-06-29 12:00:00 -3.8 161.7 -3.7 161.5
2015-06-29 18:00:00 -4.0 161.4 -4.0 161.2
2015-06-30 00:00:00 -4.3 161.0 -4.3 161.0
2015-06-30 06:00:00 -4.8 160.6 -5.0 160.6
2015-06-30 12:00:00 -5.3 160.3 -5.4 160.2
2015-06-30 18:00:00 -6.0 160.1 -5.9 160.0
2015-07-01 00:00:00 -6.5 159.7 -6.3 159.5
2015-07-01 06:00:00 -6.8 159.2 -6.7 159.1
2015-07-01 12:00:00 -7.0 159.1 -6.9 159.0
2015-07-01 18:00:00 -6.8 159.3 -6.8 159.2
2015-07-02 00:00:00 -6.5 159.8 -6.6 159.7
2015-07-02 06:00:00 -6.4 160.3 -6.3 160.2
2015-07-02 12:00:00 -6.4 160.6 -6.4 160.5
2015-07-02 18:00:00 -6.6 160.8 -6.9 160.6
2015-07-03 00:00:00 -6.9 160.9 -7.7 160.8
2015-07-03 06:00:00 -7.4 160.8
2015-07-03 12:00:00 -7.7 160.5
2015-07-03 18:00:00 -7.8 160.2
2015-07-04 00:00:00 -7.9 159.9
2015-07-04 06:00:00 -8.0 159.5

top of pageTrack Data:Intensity

jtwc_sh bom
Date Wind Pres Wind Pres
2015-06-28 12:00:00 20. 1007.
2015-06-28 18:00:00 25. 1005. 20.
2015-06-29 00:00:00 25. 1004. 20. 1005.
2015-06-29 06:00:00 25. 1004. 25. 1003.
2015-06-29 12:00:00 25. 1004. 25. 1004.
2015-06-29 18:00:00 25. 1004. 25. 1003.
2015-06-30 00:00:00 30. 1000. 30. 1002.
2015-06-30 06:00:00 30. 1000. 30. 1001.
2015-06-30 12:00:00 35. 996. 30. 1001.
2015-06-30 18:00:00 40. 993. 35. 998.
2015-07-01 00:00:00 45. 989. 35. 998.
2015-07-01 06:00:00 45. 989. 35. 996.
2015-07-01 12:00:00 45. 989. 35. 997.
2015-07-01 18:00:00 45. 989. 30. 999.
2015-07-02 00:00:00 40. 993. 30. 999.
2015-07-02 06:00:00 35. 996. 25. 999.
2015-07-02 12:00:00 35. 996. 25. 999.
2015-07-02 18:00:00 35. 996. 25. 999.
2015-07-03 00:00:00 35. 996. 30. 999.
2015-07-03 06:00:00 35. 996.
2015-07-03 12:00:00 30. 1000.
2015-07-03 18:00:00 30. 1000.
2015-07-04 00:00:00 25. 1004.
2015-07-04 06:00:00 20. 1007.

top of page Links to source data

Source Source file Format
jtwc_sh bsh252015.dat ATCF
bom IDCKMSTM0S.csv:Line=25545:Raquel CSV file (from Excel file)